sensor_id;sensor_type;location;lat;lon;timestamp;noise_LAeq;noise_LA_min;noise_LA_max;noise_LA01;noise_LA95
45109;Laerm;30447;48.742;8.972;2023-08-08T00:00:54;39.01;35.36;44.31;;
45109;Laerm;30447;48.742;8.972;2023-08-08T00:03:20;40.35;35.36;45.30;;
45109;Laerm;30447;48.742;8.972;2023-08-08T00:05:47;40.31;35.04;49.52;;
45109;Laerm;30447;48.742;8.972;2023-08-08T00:08:13;39.81;34.31;46.18;;
45109;Laerm;30447;48.742;8.972;2023-08-08T00:10:40;39.85;35.94;44.69;;
45109;Laerm;30447;48.742;8.972;2023-08-08T00:13:06;39.86;35.04;45.11;;
45109;Laerm;30447;48.742;8.972;2023-08-08T00:15:32;41.95;37.70;47.57;;
45109;Laerm;30447;48.742;8.972;2023-08-08T00:17:59;41.31;37.32;46.71;;
45109;Laerm;30447;48.742;8.972;2023-08-08T00:20:25;40.65;35.66;49.30;;
45109;Laerm;30447;48.742;8.972;2023-08-08T00:22:52;39.40;35.04;51.70;;
45109;Laerm;30447;48.742;8.972;2023-08-08T00:25:18;39.96;35.36;44.58;;
45109;Laerm;30447;48.742;8.972;2023-08-08T00:27:45;39.92;35.36;45.11;;
45109;Laerm;30447;48.742;8.972;2023-08-08T00:30:12;39.97;35.04;48.92;;
45109;Laerm;30447;48.742;8.972;2023-08-08T00:32:41;39.11;33.44;44.19;;
45109;Laerm;30447;48.742;8.972;2023-08-08T00:35:08;39.27;34.69;44.31;;
45109;Laerm;30447;48.742;8.972;2023-08-08T00:37:35;38.52;33.90;44.39;;
45109;Laerm;30447;48.742;8.972;2023-08-08T00:40:01;38.43;35.04;41.89;;
45109;Laerm;30447;48.742;8.972;2023-08-08T00:42:28;39.17;35.36;43.94;;
45109;Laerm;30447;48.742;8.972;2023-08-08T00:44:54;39.49;34.31;46.25;;
45109;Laerm;30447;48.742;8.972;2023-08-08T00:47:21;40.65;35.04;45.36;;
45109;Laerm;30447;48.742;8.972;2023-08-08T00:49:47;39.60;33.90;45.23;;
45109;Laerm;30447;48.742;8.972;2023-08-08T00:52:15;40.05;36.20;45.94;;
45109;Laerm;30447;48.742;8.972;2023-08-08T00:54:41;39.76;36.20;44.54;;
45109;Laerm;30447;48.742;8.972;2023-08-08T00:57:08;40.38;35.94;44.58;;
45109;Laerm;30447;48.742;8.972;2023-08-08T00:59:35;40.76;37.52;44.39;;
45109;Laerm;30447;48.742;8.972;2023-08-08T01:02:01;40.76;36.69;45.17;;
45109;Laerm;30447;48.742;8.972;2023-08-08T01:04:28;39.10;35.04;42.82;;
45109;Laerm;30447;48.742;8.972;2023-08-08T01:07:04;39.94;36.45;44.51;;
45109;Laerm;30447;48.742;8.972;2023-08-08T01:09:55;39.52;35.36;43.86;;
45109;Laerm;30447;48.742;8.972;2023-08-08T01:12:26;39.75;35.04;44.03;;
45109;Laerm;30447;48.742;8.972;2023-08-08T01:14:54;39.06;35.04;43.34;;
45109;Laerm;30447;48.742;8.972;2023-08-08T01:17:22;39.00;34.69;44.27;;
45109;Laerm;30447;48.742;8.972;2023-08-08T01:19:50;38.77;35.04;41.96;;
45109;Laerm;30447;48.742;8.972;2023-08-08T01:22:27;39.85;35.94;44.23;;
45109;Laerm;30447;48.742;8.972;2023-08-08T01:24:56;39.41;35.36;43.54;;
45109;Laerm;30447;48.742;8.972;2023-08-08T01:27:23;40.38;36.20;45.28;;
45109;Laerm;30447;48.742;8.972;2023-08-08T01:29:50;39.76;36.20;45.01;;
45109;Laerm;30447;48.742;8.972;2023-08-08T01:32:16;38.97;34.31;42.93;;
45109;Laerm;30447;48.742;8.972;2023-08-08T01:34:43;40.83;36.91;44.27;;
45109;Laerm;30447;48.742;8.972;2023-08-08T01:40:18;39.40;35.04;44.19;;
45109;Laerm;30447;48.742;8.972;2023-08-08T01:42:48;40.45;36.69;45.27;;
45109;Laerm;30447;48.742;8.972;2023-08-08T01:45:16;40.51;36.10;45.17;;
45109;Laerm;30447;48.742;8.972;2023-08-08T01:47:43;39.96;36.20;44.11;;
45109;Laerm;30447;48.742;8.972;2023-08-08T01:50:15;40.07;36.20;44.51;;
45109;Laerm;30447;48.742;8.972;2023-08-08T01:52:41;40.82;37.12;45.72;;
45109;Laerm;30447;48.742;8.972;2023-08-08T01:55:08;39.05;34.31;43.09;;
45109;Laerm;30447;48.742;8.972;2023-08-08T01:57:34;39.26;35.36;44.94;;
45109;Laerm;30447;48.742;8.972;2023-08-08T02:00:01;40.35;35.94;44.94;;
45109;Laerm;30447;48.742;8.972;2023-08-08T02:02:30;41.02;36.69;44.87;;
45109;Laerm;30447;48.742;8.972;2023-08-08T02:04:56;40.37;35.66;45.17;;
45109;Laerm;30447;48.742;8.972;2023-08-08T02:07:23;39.57;35.66;43.90;;
45109;Laerm;30447;48.742;8.972;2023-08-08T02:09:49;40.35;35.66;44.58;;
45109;Laerm;30447;48.742;8.972;2023-08-08T02:12:17;40.69;37.12;44.51;;
45109;Laerm;30447;48.742;8.972;2023-08-08T02:14:43;40.01;36.69;42.65;;
45109;Laerm;30447;48.742;8.972;2023-08-08T02:17:09;40.50;36.20;45.17;;
45109;Laerm;30447;48.742;8.972;2023-08-08T02:19:36;40.66;36.45;44.15;;
45109;Laerm;30447;48.742;8.972;2023-08-08T02:22:03;40.94;37.52;44.73;;
45109;Laerm;30447;48.742;8.972;2023-08-08T02:24:29;41.01;36.91;45.54;;
45109;Laerm;30447;48.742;8.972;2023-08-08T02:26:56;40.94;37.88;44.73;;
45109;Laerm;30447;48.742;8.972;2023-08-08T02:29:22;40.66;37.12;43.39;;
45109;Laerm;30447;48.742;8.972;2023-08-08T02:31:48;40.33;36.45;43.39;;
45109;Laerm;30447;48.742;8.972;2023-08-08T02:34:15;40.88;37.12;43.90;;
45109;Laerm;30447;48.742;8.972;2023-08-08T02:36:41;42.00;37.52;46.07;;
45109;Laerm;30447;48.742;8.972;2023-08-08T02:39:08;41.33;37.70;44.62;;
45109;Laerm;30447;48.742;8.972;2023-08-08T02:41:34;41.86;36.91;44.90;;
45109;Laerm;30447;48.742;8.972;2023-08-08T02:44:01;40.90;37.70;44.65;;
45109;Laerm;30447;48.742;8.972;2023-08-08T02:46:27;41.45;37.32;48.21;;
45109;Laerm;30447;48.742;8.972;2023-08-08T02:48:54;42.11;38.81;45.51;;
45109;Laerm;30447;48.742;8.972;2023-08-08T02:51:20;41.05;37.52;44.54;;
45109;Laerm;30447;48.742;8.972;2023-08-08T02:53:46;40.56;37.32;42.98;;
45109;Laerm;30447;48.742;8.972;2023-08-08T02:56:13;41.37;38.05;44.23;;
45109;Laerm;30447;48.742;8.972;2023-08-08T02:58:39;42.11;38.37;45.99;;
45109;Laerm;30447;48.742;8.972;2023-08-08T03:01:06;41.98;39.08;45.04;;
45109;Laerm;30447;48.742;8.972;2023-08-08T03:03:32;42.19;38.81;45.07;;
45109;Laerm;30447;48.742;8.972;2023-08-08T03:06:00;42.52;39.08;45.48;;
45109;Laerm;30447;48.742;8.972;2023-08-08T03:08:27;42.41;39.58;53.83;;
45109;Laerm;30447;48.742;8.972;2023-08-08T03:10:53;42.88;39.70;57.85;;
45109;Laerm;30447;48.742;8.972;2023-08-08T03:13:20;42.84;40.43;46.02;;
45109;Laerm;30447;48.742;8.972;2023-08-08T03:15:48;43.32;40.33;47.59;;
45109;Laerm;30447;48.742;8.972;2023-08-08T03:18:15;44.20;40.98;52.26;;
45109;Laerm;30447;48.742;8.972;2023-08-08T03:20:41;44.46;41.75;49.50;;
45109;Laerm;30447;48.742;8.972;2023-08-08T03:23:08;43.92;41.22;46.73;;
45109;Laerm;30447;48.742;8.972;2023-08-08T03:25:34;43.04;40.71;46.02;;
45109;Laerm;30447;48.742;8.972;2023-08-08T03:28:01;43.30;40.98;46.91;;
45109;Laerm;30447;48.742;8.972;2023-08-08T03:30:27;43.37;40.71;46.40;;
45109;Laerm;30447;48.742;8.972;2023-08-08T03:32:53;43.09;40.03;45.51;;
45109;Laerm;30447;48.742;8.972;2023-08-08T03:35:20;43.05;40.98;45.42;;
45109;Laerm;30447;48.742;8.972;2023-08-08T03:37:46;43.17;40.43;45.72;;
45109;Laerm;30447;48.742;8.972;2023-08-08T03:40:13;43.90;41.61;47.77;;
45109;Laerm;30447;48.742;8.972;2023-08-08T03:42:41;44.34;41.89;48.40;;
45109;Laerm;30447;48.742;8.972;2023-08-08T03:45:07;43.78;41.22;48.34;;
45109;Laerm;30447;48.742;8.972;2023-08-08T03:47:34;43.97;41.06;51.69;;
45109;Laerm;30447;48.742;8.972;2023-08-08T03:50:00;43.54;41.14;46.02;;
45109;Laerm;30447;48.742;8.972;2023-08-08T03:52:27;43.62;40.62;47.67;;
45109;Laerm;30447;48.742;8.972;2023-08-08T03:54:53;43.52;41.30;45.89;;
45109;Laerm;30447;48.742;8.972;2023-08-08T03:57:20;43.13;40.33;47.84;;
45109;Laerm;30447;48.742;8.972;2023-08-08T03:59:46;42.89;40.62;44.73;;
45109;Laerm;30447;48.742;8.972;2023-08-08T04:02:13;43.40;40.71;50.86;;
45109;Laerm;30447;48.742;8.972;2023-08-08T04:04:39;42.58;39.58;49.29;;
45109;Laerm;30447;48.742;8.972;2023-08-08T04:07:06;43.29;40.33;53.52;;
45109;Laerm;30447;48.742;8.972;2023-08-08T04:09:32;43.17;41.06;48.15;;
45109;Laerm;30447;48.742;8.972;2023-08-08T04:11:59;43.34;41.38;46.40;;
45109;Laerm;30447;48.742;8.972;2023-08-08T04:14:25;43.71;40.89;50.75;;
45109;Laerm;30447;48.742;8.972;2023-08-08T04:16:52;44.29;41.46;49.75;;
45109;Laerm;30447;48.742;8.972;2023-08-08T04:19:18;44.50;41.96;51.26;;
45109;Laerm;30447;48.742;8.972;2023-08-08T04:21:44;44.04;41.53;48.66;;
45109;Laerm;30447;48.742;8.972;2023-08-08T04:24:11;44.15;41.96;50.07;;
45109;Laerm;30447;48.742;8.972;2023-08-08T04:26:38;43.98;41.82;49.43;;
45109;Laerm;30447;48.742;8.972;2023-08-08T04:29:05;43.81;41.46;50.98;;
45109;Laerm;30447;48.742;8.972;2023-08-08T04:31:32;44.11;41.75;51.75;;
45109;Laerm;30447;48.742;8.972;2023-08-08T04:33:59;44.33;41.06;52.90;;
45109;Laerm;30447;48.742;8.972;2023-08-08T04:36:27;44.55;42.16;52.86;;
45109;Laerm;30447;48.742;8.972;2023-08-08T04:38:54;44.32;42.41;50.32;;
45109;Laerm;30447;48.742;8.972;2023-08-08T04:41:21;44.42;42.41;48.71;;
45109;Laerm;30447;48.742;8.972;2023-08-08T04:43:47;44.09;41.55;51.44;;
45109;Laerm;30447;48.742;8.972;2023-08-08T04:46:14;44.20;41.96;52.09;;
45109;Laerm;30447;48.742;8.972;2023-08-08T04:48:40;44.15;41.75;51.93;;
45109;Laerm;30447;48.742;8.972;2023-08-08T04:51:08;43.66;40.89;53.20;;
45109;Laerm;30447;48.742;8.972;2023-08-08T04:53:34;43.02;40.23;46.57;;
45109;Laerm;30447;48.742;8.972;2023-08-08T04:56:01;43.52;40.80;48.26;;
45109;Laerm;30447;48.742;8.972;2023-08-08T04:58:27;43.52;41.38;54.23;;
45109;Laerm;30447;48.742;8.972;2023-08-08T05:00:54;43.36;41.06;51.71;;
45109;Laerm;30447;48.742;8.972;2023-08-08T05:03:21;43.88;41.14;56.04;;
45109;Laerm;30447;48.742;8.972;2023-08-08T05:05:47;44.27;41.53;56.61;;
45109;Laerm;30447;48.742;8.972;2023-08-08T05:08:14;44.06;41.96;51.03;;
45109;Laerm;30447;48.742;8.972;2023-08-08T05:10:40;44.14;41.89;50.70;;
45109;Laerm;30447;48.742;8.972;2023-08-08T05:13:08;43.84;41.61;50.85;;
45109;Laerm;30447;48.742;8.972;2023-08-08T05:15:34;43.37;41.14;48.87;;
45109;Laerm;30447;48.742;8.972;2023-08-08T05:18:01;43.99;40.89;57.15;;
45109;Laerm;30447;48.742;8.972;2023-08-08T05:20:27;44.13;42.03;52.90;;
45109;Laerm;30447;48.742;8.972;2023-08-08T05:22:54;43.67;41.19;51.28;;
45109;Laerm;30447;48.742;8.972;2023-08-08T05:25:20;43.31;40.89;50.33;;
45109;Laerm;30447;48.742;8.972;2023-08-08T05:27:46;45.88;41.30;59.19;;
45109;Laerm;30447;48.742;8.972;2023-08-08T05:30:13;43.56;41.06;47.93;;
45109;Laerm;30447;48.742;8.972;2023-08-08T05:32:39;43.75;41.38;51.47;;
45109;Laerm;30447;48.742;8.972;2023-08-08T05:35:06;43.75;41.61;57.53;;
45109;Laerm;30447;48.742;8.972;2023-08-08T05:37:33;43.71;41.14;55.50;;
45109;Laerm;30447;48.742;8.972;2023-08-08T05:39:59;43.23;41.46;49.80;;
45109;Laerm;30447;48.742;8.972;2023-08-08T05:42:26;43.36;40.80;55.39;;
45109;Laerm;30447;48.742;8.972;2023-08-08T05:44:52;43.37;40.80;57.59;;
45109;Laerm;30447;48.742;8.972;2023-08-08T05:47:19;44.12;40.71;52.96;;
45109;Laerm;30447;48.742;8.972;2023-08-08T05:49:45;42.72;40.33;50.73;;
45109;Laerm;30447;48.742;8.972;2023-08-08T05:52:11;43.33;40.03;60.05;;
45109;Laerm;30447;48.742;8.972;2023-08-08T05:54:38;45.80;39.46;61.20;;
45109;Laerm;30447;48.742;8.972;2023-08-08T05:57:04;44.28;40.03;61.19;;
45109;Laerm;30447;48.742;8.972;2023-08-08T05:59:31;43.30;40.43;53.58;;
45109;Laerm;30447;48.742;8.972;2023-08-08T06:01:57;42.86;39.81;61.69;;
45109;Laerm;30447;48.742;8.972;2023-08-08T06:04:25;43.96;39.58;57.95;;
45109;Laerm;30447;48.742;8.972;2023-08-08T06:06:51;42.23;40.13;49.55;;
45109;Laerm;30447;48.742;8.972;2023-08-08T06:09:18;42.08;39.70;45.27;;
45109;Laerm;30447;48.742;8.972;2023-08-08T06:11:44;42.20;39.58;46.59;;
45109;Laerm;30447;48.742;8.972;2023-08-08T06:14:11;43.42;39.92;58.47;;
45109;Laerm;30447;48.742;8.972;2023-08-08T06:16:37;43.37;39.58;61.57;;
45109;Laerm;30447;48.742;8.972;2023-08-08T06:19:04;42.00;39.46;55.97;;
45109;Laerm;30447;48.742;8.972;2023-08-08T06:21:31;41.92;39.08;50.85;;
45109;Laerm;30447;48.742;8.972;2023-08-08T06:23:58;41.73;39.21;50.68;;
45109;Laerm;30447;48.742;8.972;2023-08-08T06:26:24;42.38;39.21;64.36;;
45109;Laerm;30447;48.742;8.972;2023-08-08T06:28:51;41.84;38.67;54.80;;
45109;Laerm;30447;48.742;8.972;2023-08-08T06:31:20;41.71;39.21;48.81;;
45109;Laerm;30447;48.742;8.972;2023-08-08T06:33:46;41.93;38.67;53.63;;
45109;Laerm;30447;48.742;8.972;2023-08-08T06:36:12;41.57;38.37;52.06;;
45109;Laerm;30447;48.742;8.972;2023-08-08T06:38:39;41.92;38.81;52.78;;
45109;Laerm;30447;48.742;8.972;2023-08-08T06:41:05;42.25;38.81;50.58;;
45109;Laerm;30447;48.742;8.972;2023-08-08T06:43:32;42.19;38.52;46.50;;
45109;Laerm;30447;48.742;8.972;2023-08-08T06:45:58;42.86;39.70;54.56;;
45109;Laerm;30447;48.742;8.972;2023-08-08T06:48:25;42.36;38.52;46.89;;
45109;Laerm;30447;48.742;8.972;2023-08-08T06:50:51;42.57;39.21;57.01;;
45109;Laerm;30447;48.742;8.972;2023-08-08T06:53:18;41.98;38.87;47.91;;
45109;Laerm;30447;48.742;8.972;2023-08-08T06:55:44;40.96;37.70;51.09;;
45109;Laerm;30447;48.742;8.972;2023-08-08T06:58:11;41.18;38.05;52.98;;
45109;Laerm;30447;48.742;8.972;2023-08-08T07:00:37;42.63;39.08;58.12;;
45109;Laerm;30447;48.742;8.972;2023-08-08T07:03:04;41.85;38.67;50.14;;
45109;Laerm;30447;48.742;8.972;2023-08-08T07:05:30;41.10;37.12;47.28;;
45109;Laerm;30447;48.742;8.972;2023-08-08T07:07:57;41.93;37.70;56.29;;
45109;Laerm;30447;48.742;8.972;2023-08-08T07:10:23;41.30;38.37;53.71;;
45109;Laerm;30447;48.742;8.972;2023-08-08T07:12:50;41.33;37.70;55.05;;
45109;Laerm;30447;48.742;8.972;2023-08-08T07:15:16;43.16;38.02;59.11;;
45109;Laerm;30447;48.742;8.972;2023-08-08T07:17:43;46.48;38.05;65.72;;
45109;Laerm;30447;48.742;8.972;2023-08-08T07:20:10;45.96;36.91;72.18;;
45109;Laerm;30447;48.742;8.972;2023-08-08T07:22:39;42.22;38.05;56.97;;
45109;Laerm;30447;48.742;8.972;2023-08-08T07:25:06;41.76;37.88;52.29;;
45109;Laerm;30447;48.742;8.972;2023-08-08T07:27:33;42.12;38.18;57.22;;
45109;Laerm;30447;48.742;8.972;2023-08-08T07:29:59;41.74;38.05;50.62;;
45109;Laerm;30447;48.742;8.972;2023-08-08T07:32:27;42.42;39.46;50.83;;
45109;Laerm;30447;48.742;8.972;2023-08-08T07:34:53;42.42;38.21;61.70;;
45109;Laerm;30447;48.742;8.972;2023-08-08T07:37:20;41.11;37.88;50.67;;
45109;Laerm;30447;48.742;8.972;2023-08-08T07:39:50;41.14;36.20;51.91;;
45109;Laerm;30447;48.742;8.972;2023-08-08T07:42:17;40.84;37.32;51.96;;
45109;Laerm;30447;48.742;8.972;2023-08-08T07:44:43;40.84;37.12;45.63;;
45109;Laerm;30447;48.742;8.972;2023-08-08T07:47:10;41.41;36.69;47.74;;
45109;Laerm;30447;48.742;8.972;2023-08-08T07:49:36;40.59;37.12;43.81;;
45109;Laerm;30447;48.742;8.972;2023-08-08T07:52:03;41.00;37.32;55.78;;
45109;Laerm;30447;48.742;8.972;2023-08-08T07:54:29;41.77;36.69;65.16;;
45109;Laerm;30447;48.742;8.972;2023-08-08T07:56:56;47.55;37.32;78.66;;
45109;Laerm;30447;48.742;8.972;2023-08-08T07:59:22;45.94;37.88;73.81;;
45109;Laerm;30447;48.742;8.972;2023-08-08T08:01:50;41.83;37.32;53.40;;
45109;Laerm;30447;48.742;8.972;2023-08-08T08:04:16;40.23;37.12;50.51;;
45109;Laerm;30447;48.742;8.972;2023-08-08T08:06:42;40.90;37.70;61.20;;
45109;Laerm;30447;48.742;8.972;2023-08-08T08:09:09;41.75;38.05;48.08;;
45109;Laerm;30447;48.742;8.972;2023-08-08T08:11:35;40.75;37.32;47.00;;
45109;Laerm;30447;48.742;8.972;2023-08-08T08:14:02;47.03;36.45;62.10;;
45109;Laerm;30447;48.742;8.972;2023-08-08T08:16:28;46.40;37.32;64.80;;
45109;Laerm;30447;48.742;8.972;2023-08-08T08:18:55;40.49;36.91;51.41;;
45109;Laerm;30447;48.742;8.972;2023-08-08T08:21:21;41.16;36.56;53.37;;
45109;Laerm;30447;48.742;8.972;2023-08-08T08:23:48;40.88;37.12;50.96;;
45109;Laerm;30447;48.742;8.972;2023-08-08T08:26:14;47.04;37.52;77.75;;
45109;Laerm;30447;48.742;8.972;2023-08-08T08:28:40;40.54;36.91;50.36;;
45109;Laerm;30447;48.742;8.972;2023-08-08T08:31:07;40.01;36.45;45.30;;
45109;Laerm;30447;48.742;8.972;2023-08-08T08:33:35;39.87;36.45;44.15;;
45109;Laerm;30447;48.742;8.972;2023-08-08T08:36:02;39.73;36.20;47.36;;
45109;Laerm;30447;48.742;8.972;2023-08-08T08:38:28;40.21;36.45;50.60;;
45109;Laerm;30447;48.742;8.972;2023-08-08T08:40:56;40.30;36.91;44.65;;
45109;Laerm;30447;48.742;8.972;2023-08-08T08:43:23;41.92;38.18;49.66;;
45109;Laerm;30447;48.742;8.972;2023-08-08T08:45:53;40.84;37.70;45.27;;
45109;Laerm;30447;48.742;8.972;2023-08-08T08:48:21;42.16;38.05;48.15;;
45109;Laerm;30447;48.742;8.972;2023-08-08T08:50:48;42.07;38.52;49.11;;
45109;Laerm;30447;48.742;8.972;2023-08-08T08:53:15;41.44;38.21;47.36;;
45109;Laerm;30447;48.742;8.972;2023-08-08T08:55:44;47.56;37.70;63.56;;
45109;Laerm;30447;48.742;8.972;2023-08-08T08:58:14;40.63;37.12;43.86;;
45109;Laerm;30447;48.742;8.972;2023-08-08T09:00:44;40.97;37.12;51.81;;
45109;Laerm;30447;48.742;8.972;2023-08-08T09:03:12;40.43;37.12;56.41;;
45109;Laerm;30447;48.742;8.972;2023-08-08T09:05:41;42.30;37.70;54.17;;
45109;Laerm;30447;48.742;8.972;2023-08-08T09:08:08;42.19;38.37;51.46;;
45109;Laerm;30447;48.742;8.972;2023-08-08T09:10:38;40.73;37.12;52.41;;
45109;Laerm;30447;48.742;8.972;2023-08-08T09:13:04;41.49;36.20;47.95;;
45109;Laerm;30447;48.742;8.972;2023-08-08T09:15:34;40.65;35.36;45.20;;
45109;Laerm;30447;48.742;8.972;2023-08-08T09:18:01;40.57;37.12;44.07;;
45109;Laerm;30447;48.742;8.972;2023-08-08T09:20:28;41.73;38.81;51.90;;
45109;Laerm;30447;48.742;8.972;2023-08-08T09:22:55;41.50;37.70;54.84;;
45109;Laerm;30447;48.742;8.972;2023-08-08T09:25:23;40.67;37.32;50.29;;
45109;Laerm;30447;48.742;8.972;2023-08-08T09:27:53;41.69;38.21;51.75;;
45109;Laerm;30447;48.742;8.972;2023-08-08T09:30:19;40.95;38.21;48.18;;
45109;Laerm;30447;48.742;8.972;2023-08-08T09:32:46;42.15;38.05;48.20;;
45109;Laerm;30447;48.742;8.972;2023-08-08T09:35:13;42.94;38.52;49.72;;
45109;Laerm;30447;48.742;8.972;2023-08-08T09:37:39;43.20;39.46;51.06;;
45109;Laerm;30447;48.742;8.972;2023-08-08T09:40:06;41.99;39.08;47.34;;
45109;Laerm;30447;48.742;8.972;2023-08-08T09:42:35;42.07;38.52;48.71;;
45109;Laerm;30447;48.742;8.972;2023-08-08T09:45:01;43.67;40.33;50.04;;
45109;Laerm;30447;48.742;8.972;2023-08-08T09:47:28;43.64;39.58;56.49;;
45109;Laerm;30447;48.742;8.972;2023-08-08T09:50:00;42.39;38.81;62.37;;
45109;Laerm;30447;48.742;8.972;2023-08-08T09:52:28;42.39;37.52;52.86;;
45109;Laerm;30447;48.742;8.972;2023-08-08T09:54:55;43.71;39.92;54.82;;
45109;Laerm;30447;48.742;8.972;2023-08-08T09:57:23;41.27;37.70;44.27;;
45109;Laerm;30447;48.742;8.972;2023-08-08T09:59:51;42.34;38.21;54.90;;
45109;Laerm;30447;48.742;8.972;2023-08-08T10:02:18;41.42;38.21;46.05;;
45109;Laerm;30447;48.742;8.972;2023-08-08T10:04:46;43.38;38.21;58.69;;
45109;Laerm;30447;48.742;8.972;2023-08-08T10:07:12;40.73;37.88;44.23;;
45109;Laerm;30447;48.742;8.972;2023-08-08T10:09:39;41.16;38.37;47.68;;
45109;Laerm;30447;48.742;8.972;2023-08-08T10:12:07;41.67;38.52;53.73;;
45109;Laerm;30447;48.742;8.972;2023-08-08T10:14:36;44.76;39.58;62.05;;
45109;Laerm;30447;48.742;8.972;2023-08-08T10:17:05;44.18;39.08;65.41;;
45109;Laerm;30447;48.742;8.972;2023-08-08T10:19:32;42.01;38.81;55.09;;
45109;Laerm;30447;48.742;8.972;2023-08-08T10:22:04;41.95;38.21;54.32;;
45109;Laerm;30447;48.742;8.972;2023-08-08T10:24:38;42.49;39.08;49.51;;
45109;Laerm;30447;48.742;8.972;2023-08-08T10:27:04;41.71;38.21;51.19;;
45109;Laerm;30447;48.742;8.972;2023-08-08T10:29:33;42.12;38.67;51.65;;
45109;Laerm;30447;48.742;8.972;2023-08-08T10:32:02;43.11;38.37;56.67;;
45109;Laerm;30447;48.742;8.972;2023-08-08T10:34:46;44.81;39.70;59.81;;
45109;Laerm;30447;48.742;8.972;2023-08-08T10:37:15;43.42;40.13;50.05;;
45109;Laerm;30447;48.742;8.972;2023-08-08T10:39:58;43.10;40.03;57.93;;
45109;Laerm;30447;48.742;8.972;2023-08-08T10:42:26;46.41;39.58;68.07;;
45109;Laerm;30447;48.742;8.972;2023-08-08T10:44:58;43.30;40.03;52.61;;
45109;Laerm;30447;48.742;8.972;2023-08-08T10:47:30;42.09;37.88;54.14;;
45109;Laerm;30447;48.742;8.972;2023-08-08T10:55:31;42.39;38.81;52.25;;
45109;Laerm;30447;48.742;8.972;2023-08-08T10:58:09;43.26;39.92;60.05;;
45109;Laerm;30447;48.742;8.972;2023-08-08T11:00:37;42.55;39.08;49.78;;
45109;Laerm;30447;48.742;8.972;2023-08-08T11:03:08;42.04;38.21;56.88;;
45109;Laerm;30447;48.742;8.972;2023-08-08T11:05:37;42.36;38.81;53.99;;
45109;Laerm;30447;48.742;8.972;2023-08-08T11:08:05;43.44;39.46;54.83;;
45109;Laerm;30447;48.742;8.972;2023-08-08T11:10:39;43.00;39.34;55.67;;
45109;Laerm;30447;48.742;8.972;2023-08-08T11:13:07;43.32;39.34;57.66;;
45109;Laerm;30447;48.742;8.972;2023-08-08T11:15:36;41.94;38.52;54.92;;
45109;Laerm;30447;48.742;8.972;2023-08-08T11:18:03;41.36;38.05;55.33;;
45109;Laerm;30447;48.742;8.972;2023-08-08T11:20:34;44.35;38.81;58.91;;
45109;Laerm;30447;48.742;8.972;2023-08-08T11:23:02;44.86;40.03;59.50;;
45109;Laerm;30447;48.742;8.972;2023-08-08T11:25:31;44.53;38.52;60.99;;
45109;Laerm;30447;48.742;8.972;2023-08-08T11:27:58;45.44;39.81;62.23;;
45109;Laerm;30447;48.742;8.972;2023-08-08T11:30:29;42.22;39.46;54.00;;
45109;Laerm;30447;48.742;8.972;2023-08-08T11:32:56;41.88;38.52;53.15;;
45109;Laerm;30447;48.742;8.972;2023-08-08T11:35:24;47.20;39.46;73.69;;
45109;Laerm;30447;48.742;8.972;2023-08-08T11:37:56;44.73;40.23;55.12;;
45109;Laerm;30447;48.742;8.972;2023-08-08T11:40:26;43.18;38.67;57.76;;
45109;Laerm;30447;48.742;8.972;2023-08-08T11:42:55;42.49;39.08;54.04;;
45109;Laerm;30447;48.742;8.972;2023-08-08T11:45:23;41.89;39.08;50.87;;
45109;Laerm;30447;48.742;8.972;2023-08-08T11:47:52;41.40;38.05;47.68;;
45109;Laerm;30447;48.742;8.972;2023-08-08T11:50:21;40.79;38.37;45.89;;
45109;Laerm;30447;48.742;8.972;2023-08-08T11:52:51;42.57;37.88;60.03;;
45109;Laerm;30447;48.742;8.972;2023-08-08T11:55:19;43.69;40.13;54.27;;
45109;Laerm;30447;48.742;8.972;2023-08-08T11:57:50;42.77;39.34;53.23;;
45109;Laerm;30447;48.742;8.972;2023-08-08T12:00:17;42.39;38.21;50.82;;
45109;Laerm;30447;48.742;8.972;2023-08-08T12:02:44;42.31;38.05;56.25;;
45109;Laerm;30447;48.742;8.972;2023-08-08T12:05:13;45.33;39.34;59.71;;
45109;Laerm;30447;48.742;8.972;2023-08-08T12:07:43;44.72;40.27;59.68;;
45109;Laerm;30447;48.742;8.972;2023-08-08T12:10:19;43.55;40.33;57.32;;
45109;Laerm;30447;48.742;8.972;2023-08-08T12:12:51;44.43;39.81;50.42;;
45109;Laerm;30447;48.742;8.972;2023-08-08T12:15:19;43.37;38.67;57.01;;
45109;Laerm;30447;48.742;8.972;2023-08-08T12:17:46;43.54;38.37;54.19;;
45109;Laerm;30447;48.742;8.972;2023-08-08T12:20:14;43.29;38.95;55.76;;
45109;Laerm;30447;48.742;8.972;2023-08-08T12:22:41;41.80;38.37;63.05;;
45109;Laerm;30447;48.742;8.972;2023-08-08T12:25:08;41.52;38.37;56.40;;
45109;Laerm;30447;48.742;8.972;2023-08-08T12:27:34;41.20;37.52;52.97;;
45109;Laerm;30447;48.742;8.972;2023-08-08T12:30:01;41.33;37.88;51.15;;
45109;Laerm;30447;48.742;8.972;2023-08-08T12:32:27;55.76;38.81;67.52;;
45109;Laerm;30447;48.742;8.972;2023-08-08T12:34:55;53.28;37.88;63.08;;
45109;Laerm;30447;48.742;8.972;2023-08-08T12:37:23;56.50;37.88;62.42;;
45109;Laerm;30447;48.742;8.972;2023-08-08T12:39:50;55.82;49.65;62.71;;
45109;Laerm;30447;48.742;8.972;2023-08-08T12:42:16;56.91;49.36;63.42;;
45109;Laerm;30447;48.742;8.972;2023-08-08T12:44:43;58.08;51.64;64.26;;
45109;Laerm;30447;48.742;8.972;2023-08-08T12:47:11;55.70;40.71;65.24;;
45109;Laerm;30447;48.742;8.972;2023-08-08T12:49:37;56.68;50.91;62.67;;
45109;Laerm;30447;48.742;8.972;2023-08-08T12:52:04;56.64;51.67;63.15;;
45109;Laerm;30447;48.742;8.972;2023-08-08T12:54:30;54.70;40.71;61.33;;
45109;Laerm;30447;48.742;8.972;2023-08-08T12:56:56;51.25;41.46;63.66;;
45109;Laerm;30447;48.742;8.972;2023-08-08T12:59:23;52.72;41.75;59.17;;
45109;Laerm;30447;48.742;8.972;2023-08-08T13:01:49;52.18;42.82;59.01;;
45109;Laerm;30447;48.742;8.972;2023-08-08T13:04:16;52.15;41.46;60.23;;
45109;Laerm;30447;48.742;8.972;2023-08-08T13:06:42;49.54;40.62;57.01;;
45109;Laerm;30447;48.742;8.972;2023-08-08T13:09:09;50.91;39.34;59.04;;
45109;Laerm;30447;48.742;8.972;2023-08-08T13:11:35;41.56;38.67;49.28;;
45109;Laerm;30447;48.742;8.972;2023-08-08T13:14:02;41.15;37.52;47.20;;
45109;Laerm;30447;48.742;8.972;2023-08-08T13:16:28;42.21;38.37;66.79;;
45109;Laerm;30447;48.742;8.972;2023-08-08T13:18:54;41.59;37.88;55.10;;
45109;Laerm;30447;48.742;8.972;2023-08-08T13:21:21;41.31;38.67;48.28;;
45109;Laerm;30447;48.742;8.972;2023-08-08T13:23:47;41.77;38.81;50.65;;
45109;Laerm;30447;48.742;8.972;2023-08-08T13:26:14;43.22;39.46;55.02;;
45109;Laerm;30447;48.742;8.972;2023-08-08T13:28:40;41.89;38.21;54.08;;
45109;Laerm;30447;48.742;8.972;2023-08-08T13:31:07;42.12;38.81;59.97;;
45109;Laerm;30447;48.742;8.972;2023-08-08T13:33:34;42.74;39.08;50.09;;
45109;Laerm;30447;48.742;8.972;2023-08-08T13:36:01;42.37;39.21;53.56;;
45109;Laerm;30447;48.742;8.972;2023-08-08T13:38:27;43.31;40.23;53.06;;
45109;Laerm;30447;48.742;8.972;2023-08-08T13:40:53;44.02;41.06;56.53;;
45109;Laerm;30447;48.742;8.972;2023-08-08T13:43:21;46.13;40.03;64.57;;
45109;Laerm;30447;48.742;8.972;2023-08-08T13:45:47;41.46;38.21;50.44;;
45109;Laerm;30447;48.742;8.972;2023-08-08T13:48:14;43.11;38.52;53.72;;
45109;Laerm;30447;48.742;8.972;2023-08-08T13:50:40;43.35;38.95;58.12;;
45109;Laerm;30447;48.742;8.972;2023-08-08T13:53:07;43.99;39.08;58.71;;